createdAt,value
2022-11-15T00:00:13.022Z,14.47
2022-11-15T00:02:58.676Z,14.58
2022-11-15T00:05:44.505Z,14.60
2022-11-15T00:08:31.415Z,14.39
2022-11-15T00:11:16.948Z,14.46
2022-11-15T00:14:05.535Z,14.45
2022-11-15T00:16:51.198Z,14.65
2022-11-15T00:19:36.600Z,13.90
2022-11-15T00:22:22.579Z,14.42
2022-11-15T00:25:08.388Z,14.73
2022-11-15T00:27:57.802Z,14.39
2022-11-15T00:30:43.738Z,14.23
2022-11-15T00:33:29.940Z,14.37
2022-11-15T00:36:15.639Z,14.17
2022-11-15T00:39:01.246Z,14.29
2022-11-15T00:41:46.789Z,14.32
2022-11-15T00:44:32.552Z,14.43
2022-11-15T00:47:18.292Z,14.18
2022-11-15T00:50:05.738Z,14.10
2022-11-15T00:52:51.505Z,14.45
2022-11-15T00:55:37.318Z,14.51
2022-11-15T00:58:23.003Z,14.69
2022-11-15T01:01:09.444Z,14.90
2022-11-15T01:04:00.009Z,14.29
2022-11-15T01:06:47.043Z,14.59
2022-11-15T01:09:32.829Z,14.73
2022-11-15T01:12:18.628Z,14.73
2022-11-15T01:15:04.899Z,14.96
2022-11-15T01:17:50.821Z,15.12
2022-11-15T01:20:40.024Z,15.13
2022-11-15T01:23:25.648Z,15.14
2022-11-15T01:26:13.605Z,15.45
2022-11-15T01:28:59.059Z,15.39
2022-11-15T01:31:44.866Z,15.18
2022-11-15T01:34:30.585Z,15.10
2022-11-15T01:37:16.230Z,15.22
2022-11-15T01:40:02.156Z,15.21
2022-11-15T01:42:48.048Z,15.03
2022-11-15T01:45:33.724Z,15.16
2022-11-15T01:48:19.518Z,14.67
2022-11-15T01:51:06.538Z,14.97
2022-11-15T01:53:53.185Z,14.96
2022-11-15T01:56:39.569Z,15.23
2022-11-15T01:59:25.109Z,14.94
2022-11-15T02:02:10.778Z,14.88
2022-11-15T02:04:56.323Z,15.23
2022-11-15T02:07:41.785Z,15.38
2022-11-15T02:10:28.322Z,15.24
2022-11-15T02:13:15.156Z,14.79
2022-11-15T02:16:05.208Z,14.79
2022-11-15T02:18:54.496Z,15.19
2022-11-15T02:21:57.984Z,15.21
2022-11-15T02:24:51.551Z,15.43
2022-11-15T02:27:52.447Z,15.49
2022-11-15T02:31:07.621Z,15.20
2022-11-15T02:33:53.335Z,15.39
2022-11-15T02:36:46.515Z,15.02
2022-11-15T02:39:32.172Z,15.19
2022-11-15T02:42:46.080Z,14.83
2022-11-15T02:45:32.167Z,15.20
2022-11-15T02:48:17.654Z,14.59
2022-11-15T02:51:03.475Z,13.82
2022-11-15T02:53:48.838Z,14.51
2022-11-15T02:56:34.350Z,14.52
2022-11-15T02:59:22.852Z,14.65
2022-11-15T03:02:17.766Z,14.94
2022-11-15T03:05:09.295Z,14.83
2022-11-15T03:08:01.822Z,14.94
2022-11-15T03:10:57.592Z,15.03
2022-11-15T03:13:46.282Z,14.82
2022-11-15T03:16:35.025Z,14.78
2022-11-15T03:19:20.360Z,14.90
2022-11-15T03:22:06.634Z,15.26
2022-11-15T03:24:57.100Z,15.38
2022-11-15T03:27:43.254Z,15.45
2022-11-15T03:30:28.908Z,15.33
2022-11-15T03:33:14.346Z,15.34
2022-11-15T03:35:59.747Z,15.48
2022-11-15T03:38:45.171Z,15.46
2022-11-15T03:41:38.823Z,15.35
2022-11-15T03:44:32.376Z,13.76
2022-11-15T03:47:38.112Z,13.11
2022-11-15T03:50:23.998Z,12.94
2022-11-15T03:53:09.736Z,13.89
2022-11-15T03:55:55.503Z,14.41
2022-11-15T03:58:41.178Z,14.29
2022-11-15T04:01:29.611Z,13.44
2022-11-15T04:04:16.304Z,13.06
2022-11-15T04:07:02.079Z,12.29
2022-11-15T04:10:06.653Z,12.34
2022-11-15T04:12:52.333Z,12.94
2022-11-15T04:15:38.246Z,13.61
2022-11-15T04:18:25.301Z,12.62
2022-11-15T04:21:29.271Z,12.65
2022-11-15T04:24:15.070Z,12.61
2022-11-15T04:27:00.818Z,13.01
2022-11-15T04:29:46.664Z,13.82
2022-11-15T04:32:32.519Z,13.36
2022-11-15T04:35:18.131Z,13.53
2022-11-15T04:38:04.604Z,13.42
2022-11-15T04:40:50.182Z,12.76
2022-11-15T04:43:36.255Z,12.88
2022-11-15T04:46:22.775Z,13.19
2022-11-15T04:49:08.340Z,13.91
2022-11-15T04:51:56.847Z,14.22
2022-11-15T04:54:43.747Z,13.08
2022-11-15T04:57:29.194Z,13.29
2022-11-15T05:00:15.944Z,14.04
2022-11-15T05:03:20.386Z,14.29
2022-11-15T05:06:06.413Z,14.88
2022-11-15T05:08:52.272Z,15.21
2022-11-15T05:11:38.023Z,15.02
2022-11-15T05:14:23.711Z,15.24
2022-11-15T05:17:09.465Z,15.60
2022-11-15T05:19:55.479Z,15.57
2022-11-15T05:22:41.147Z,15.75
2022-11-15T05:25:27.037Z,15.91
2022-11-15T05:28:12.771Z,15.79
2022-11-15T05:31:02.172Z,15.73
2022-11-15T05:33:48.110Z,15.29
2022-11-15T05:36:38.300Z,15.33
2022-11-15T05:39:23.616Z,14.25
2022-11-15T05:42:11.036Z,14.68
2022-11-15T05:44:57.021Z,13.98
2022-11-15T05:47:42.553Z,14.15
2022-11-15T05:50:28.142Z,13.68
2022-11-15T05:53:14.175Z,12.97
2022-11-15T05:55:59.710Z,12.13
2022-11-15T05:58:45.518Z,11.81
2022-11-15T06:01:31.331Z,11.72
2022-11-15T06:04:17.228Z,12.16
2022-11-15T06:07:02.871Z,11.72
2022-11-15T06:09:48.508Z,12.87
2022-11-15T06:12:34.562Z,13.03
2022-11-15T06:15:20.215Z,13.30
2022-11-15T06:18:05.989Z,13.27
2022-11-15T06:20:51.677Z,13.46
2022-11-15T06:23:37.396Z,13.58
2022-11-15T06:26:23.101Z,12.47
2022-11-15T06:29:08.882Z,12.89
2022-11-15T06:31:54.728Z,11.97
2022-11-15T06:34:40.519Z,12.52
2022-11-15T06:37:26.378Z,11.99
2022-11-15T06:40:12.389Z,13.41
2022-11-15T06:43:00.578Z,12.87
2022-11-15T06:45:45.993Z,12.02
2022-11-15T06:48:31.898Z,12.39
2022-11-15T06:51:17.234Z,12.75
2022-11-15T06:54:03.285Z,12.64
2022-11-15T06:56:49.220Z,12.06
2022-11-15T06:59:39.324Z,11.53
2022-11-15T07:02:26.295Z,11.89
2022-11-15T07:05:12.924Z,12.60
2022-11-15T07:07:58.635Z,12.00
2022-11-15T07:10:44.514Z,11.66
2022-11-15T07:13:31.591Z,11.36
2022-11-15T07:16:17.462Z,11.58
2022-11-15T07:19:03.042Z,12.09
2022-11-15T07:21:48.818Z,12.10
2022-11-15T07:24:34.578Z,11.66
2022-11-15T07:27:20.408Z,11.37
2022-11-15T07:30:06.325Z,12.41
2022-11-15T07:33:01.264Z,12.62
2022-11-15T07:35:49.505Z,13.20
2022-11-15T07:38:41.010Z,13.21
2022-11-15T07:41:28.248Z,13.11
2022-11-15T07:44:14.021Z,13.10
2022-11-15T07:46:59.697Z,13.14
2022-11-15T07:49:46.981Z,13.27
2022-11-15T07:52:32.708Z,13.76
2022-11-15T07:55:18.521Z,13.10
2022-11-15T07:58:04.976Z,13.30
2022-11-15T08:00:50.399Z,12.71
2022-11-15T08:03:36.163Z,12.24
2022-11-15T08:06:21.994Z,13.80
2022-11-15T08:09:07.782Z,13.00
2022-11-15T08:11:53.397Z,13.12
2022-11-15T08:14:39.521Z,12.41
2022-11-15T08:17:25.455Z,12.56
2022-11-15T08:20:11.083Z,12.37
2022-11-15T08:22:59.488Z,11.57
2022-11-15T08:25:45.160Z,12.16
2022-11-15T08:28:31.696Z,11.64
2022-11-15T08:31:17.815Z,12.70
2022-11-15T08:34:03.929Z,12.51
2022-11-15T08:36:49.434Z,12.62
2022-11-15T08:39:35.099Z,11.18
2022-11-15T08:42:21.009Z,11.60
2022-11-15T08:45:06.865Z,12.49
2022-11-15T08:47:54.344Z,11.66
2022-11-15T08:50:40.503Z,12.26
2022-11-15T08:53:26.160Z,11.84
2022-11-15T08:56:12.629Z,11.59
2022-11-15T08:58:58.065Z,11.27
2022-11-15T09:01:43.681Z,11.57
2022-11-15T09:04:29.508Z,11.86
2022-11-15T09:07:15.209Z,12.20
2022-11-15T09:10:01.062Z,12.33
2022-11-15T09:12:49.411Z,13.01
2022-11-15T09:15:35.321Z,13.25
2022-11-15T09:18:23.327Z,12.70
2022-11-15T09:21:09.648Z,13.00
2022-11-15T09:23:55.061Z,12.45
2022-11-15T09:26:40.973Z,13.72
2022-11-15T09:29:26.578Z,12.57
2022-11-15T09:32:12.186Z,12.20
2022-11-15T09:34:58.245Z,13.00
2022-11-15T09:37:44.085Z,12.78
2022-11-15T09:40:30.622Z,12.85
2022-11-15T09:43:25.246Z,13.99
2022-11-15T09:46:16.558Z,13.79
2022-11-15T09:48:51.806Z,13.01
2022-11-15T09:51:25.153Z,12.74
2022-11-15T09:54:37.445Z,13.00
2022-11-15T09:56:45.047Z,13.32
2022-11-15T09:59:12.375Z,13.51
2022-11-15T10:01:57.805Z,14.00
2022-11-15T10:04:25.174Z,14.11
2022-11-15T10:07:11.316Z,14.22
2022-11-15T10:09:40.952Z,14.07
2022-11-15T10:12:08.665Z,13.58
2022-11-15T10:14:35.811Z,13.91
2022-11-15T10:17:26.670Z,13.38
2022-11-15T10:20:00.809Z,14.04
2022-11-15T10:22:35.580Z,13.96
2022-11-15T10:25:22.778Z,13.42
2022-11-15T10:27:57.109Z,13.76
2022-11-15T10:30:24.722Z,12.87
2022-11-15T10:32:52.085Z,13.10
2022-11-15T10:35:29.533Z,13.19
2022-11-15T10:38:07.142Z,12.66
2022-11-15T10:40:34.396Z,13.55
2022-11-15T10:43:05.786Z,12.67
2022-11-15T10:45:33.654Z,12.70
2022-11-15T10:48:12.909Z,13.59
2022-11-15T10:50:44.460Z,13.51
2022-11-15T10:53:22.963Z,14.18
2022-11-15T10:55:50.915Z,14.44
2022-11-15T10:58:34.865Z,14.18
2022-11-15T11:01:22.919Z,13.99
2022-11-15T11:04:03.322Z,14.45
2022-11-15T11:06:30.842Z,13.94
2022-11-15T11:08:59.585Z,13.02
2022-11-15T11:11:28.203Z,13.17
2022-11-15T11:13:55.611Z,13.44
2022-11-15T11:16:36.258Z,12.87
2022-11-15T11:19:18.936Z,12.97
2022-11-15T11:21:50.569Z,12.96
2022-11-15T11:24:31.741Z,12.55
2022-11-15T11:27:10.102Z,13.40
2022-11-15T11:29:50.825Z,13.62
2022-11-15T11:32:34.798Z,13.12
2022-11-15T11:35:05.043Z,13.39
2022-11-15T11:37:41.062Z,14.33
2022-11-15T11:40:10.829Z,13.70
2022-11-15T11:42:55.092Z,12.92
2022-11-15T11:45:31.568Z,11.34
2022-11-15T11:48:04.362Z,12.01
2022-11-15T11:50:32.320Z,13.43
2022-11-15T11:53:04.978Z,13.55
2022-11-15T11:55:34.196Z,13.23
2022-11-15T11:58:01.219Z,13.42
2022-11-15T12:00:32.981Z,12.64
2022-11-15T12:03:13.687Z,13.52
2022-11-15T12:05:40.981Z,14.07
2022-11-15T12:08:27.329Z,13.43
2022-11-15T12:10:58.823Z,13.44
2022-11-15T12:13:26.661Z,13.45
2022-11-15T12:15:56.256Z,13.21
2022-11-15T12:18:23.348Z,14.38
2022-11-15T12:20:53.000Z,12.70
2022-11-15T12:23:33.825Z,13.72
2022-11-15T12:26:01.325Z,13.39
2022-11-15T12:28:33.654Z,12.91
2022-11-15T12:31:12.053Z,13.65
2022-11-15T12:33:41.232Z,13.61
2022-11-15T12:36:11.230Z,13.37
2022-11-15T12:38:50.558Z,13.22
2022-11-15T12:41:18.798Z,13.29
2022-11-15T12:43:46.806Z,13.96
2022-11-15T12:46:23.253Z,13.83
2022-11-15T12:48:54.699Z,13.25
2022-11-15T12:51:22.849Z,13.40
2022-11-15T12:53:50.037Z,14.03
2022-11-15T12:56:17.313Z,13.07
2022-11-15T12:58:44.443Z,14.07
2022-11-15T13:01:11.683Z,13.81
2022-11-15T13:03:59.120Z,13.98
2022-11-15T13:06:45.167Z,14.61
2022-11-15T13:09:30.866Z,13.76
2022-11-15T13:11:58.291Z,13.97
2022-11-15T13:14:37.905Z,12.64
2022-11-15T13:17:14.034Z,12.62
2022-11-15T13:19:41.409Z,13.08
2022-11-15T13:22:30.528Z,13.54
2022-11-15T13:24:57.904Z,12.31
2022-11-15T13:27:25.012Z,12.36
2022-11-15T13:29:52.130Z,12.89
2022-11-15T13:32:19.541Z,12.54
2022-11-15T13:34:51.953Z,13.03
2022-11-15T13:37:22.610Z,12.13
2022-11-15T13:39:50.077Z,12.01
2022-11-15T13:42:18.439Z,12.81
2022-11-15T13:44:56.772Z,13.28
2022-11-15T13:47:25.884Z,12.62
2022-11-15T13:49:53.244Z,12.07
2022-11-15T13:52:20.346Z,12.21
2022-11-15T13:54:48.968Z,11.47
2022-11-15T13:57:26.523Z,11.91
2022-11-15T13:59:54.215Z,12.08
2022-11-15T14:02:31.415Z,12.75
2022-11-15T14:04:58.769Z,13.17
2022-11-15T14:07:26.650Z,12.38
2022-11-15T14:09:53.791Z,12.66
2022-11-15T14:12:30.897Z,12.78
2022-11-15T14:14:58.436Z,12.99
2022-11-15T14:17:31.777Z,12.20
2022-11-15T14:19:58.900Z,13.14
2022-11-15T14:22:27.152Z,12.65
2022-11-15T14:25:06.538Z,12.73
2022-11-15T14:27:33.976Z,11.95
2022-11-15T14:30:01.119Z,12.63
2022-11-15T14:32:29.197Z,12.38
2022-11-15T14:34:58.136Z,12.55
2022-11-15T14:37:26.504Z,12.20
2022-11-15T14:39:54.009Z,12.13
2022-11-15T14:42:21.790Z,11.65
2022-11-15T14:44:48.940Z,12.41
2022-11-15T14:47:16.241Z,12.63
2022-11-15T14:49:43.740Z,13.22
2022-11-15T14:52:20.200Z,13.36
2022-11-15T14:54:47.802Z,12.59
2022-11-15T14:57:14.890Z,12.92
2022-11-15T14:59:42.012Z,13.49
2022-11-15T15:02:11.562Z,12.57
2022-11-15T15:04:38.660Z,13.31
2022-11-15T15:07:05.969Z,13.73
2022-11-15T15:09:33.360Z,13.12
2022-11-15T15:12:05.995Z,13.04
2022-11-15T15:14:33.758Z,12.49
2022-11-15T15:17:00.920Z,12.85
2022-11-15T15:19:28.028Z,13.15
2022-11-15T15:21:55.427Z,13.18
2022-11-15T15:24:22.525Z,13.78
2022-11-15T15:26:49.629Z,14.28
2022-11-15T15:29:17.015Z,13.56
2022-11-15T15:31:44.136Z,13.80
2022-11-15T15:34:16.613Z,13.63
2022-11-15T15:36:44.444Z,13.71
2022-11-15T15:39:12.574Z,13.95
2022-11-15T15:41:39.676Z,13.72
2022-11-15T15:44:07.452Z,14.02
2022-11-15T15:46:34.576Z,13.77
2022-11-15T15:49:01.740Z,13.50
2022-11-15T15:51:29.121Z,12.89
2022-11-15T15:53:58.186Z,13.69
2022-11-15T15:56:25.462Z,13.52
2022-11-15T15:58:53.587Z,13.85
2022-11-15T16:01:20.905Z,13.72
2022-11-15T16:03:48.348Z,14.18
2022-11-15T16:06:34.570Z,12.80
2022-11-15T16:09:14.786Z,13.14
2022-11-15T16:11:43.493Z,13.87
2022-11-15T16:14:10.857Z,13.49
2022-11-15T16:16:37.997Z,14.08
2022-11-15T16:19:05.370Z,13.56
2022-11-15T16:21:32.767Z,14.32
2022-11-15T16:24:00.810Z,13.00
2022-11-15T16:26:28.815Z,13.49
2022-11-15T16:28:56.404Z,14.01
2022-11-15T16:31:23.773Z,13.61
2022-11-15T16:33:50.997Z,13.79
2022-11-15T16:36:27.120Z,13.19
2022-11-15T16:38:57.461Z,13.21
2022-11-15T16:41:25.152Z,13.32
2022-11-15T16:43:52.777Z,13.45
2022-11-15T16:46:20.877Z,12.29
2022-11-15T16:48:48.447Z,12.93
2022-11-15T16:51:15.832Z,13.83
2022-11-15T16:53:43.490Z,14.21
2022-11-15T16:56:16.898Z,13.42
2022-11-15T16:58:44.289Z,13.96
2022-11-15T17:01:19.190Z,13.98
2022-11-15T17:03:46.636Z,13.96
2022-11-15T17:06:14.667Z,13.85
2022-11-15T17:08:42.628Z,13.87
2022-11-15T17:11:10.015Z,12.88
2022-11-15T17:13:37.573Z,13.04
2022-11-15T17:16:05.967Z,13.93
2022-11-15T17:18:34.081Z,12.57
2022-11-15T17:21:08.902Z,13.23
2022-11-15T17:23:36.362Z,13.33
2022-11-15T17:26:28.410Z,13.47
2022-11-15T17:28:57.589Z,14.54
2022-11-15T17:31:25.559Z,14.74
2022-11-15T17:33:53.093Z,14.70
2022-11-15T17:36:21.134Z,14.80
2022-11-15T17:38:58.058Z,14.53
2022-11-15T17:41:26.886Z,14.94
2022-11-15T17:43:55.989Z,13.83
2022-11-15T17:46:23.396Z,14.27
2022-11-15T17:48:50.720Z,14.32
2022-11-15T17:51:18.960Z,14.17
2022-11-15T17:53:46.901Z,13.76
2022-11-15T17:56:15.275Z,13.48
2022-11-15T17:58:43.246Z,13.05
2022-11-15T18:01:21.219Z,14.17
2022-11-15T18:03:49.153Z,14.29
2022-11-15T18:06:16.436Z,14.94
2022-11-15T18:08:44.715Z,15.18
2022-11-15T18:11:33.149Z,15.02
2022-11-15T18:14:01.790Z,15.08
2022-11-15T18:16:31.210Z,14.76
2022-11-15T18:18:58.814Z,15.32
2022-11-15T18:21:31.400Z,15.38
2022-11-15T18:24:00.890Z,14.82
2022-11-15T18:26:28.934Z,14.60
2022-11-15T18:28:57.640Z,14.21
2022-11-15T18:31:25.972Z,14.68
2022-11-15T18:33:53.482Z,14.30
2022-11-15T18:36:22.286Z,14.94
2022-11-15T18:38:54.181Z,14.41
2022-11-15T18:41:25.051Z,14.09
2022-11-15T18:43:52.715Z,14.69
2022-11-15T18:46:20.493Z,15.00
2022-11-15T18:48:51.693Z,15.12
2022-11-15T18:51:20.173Z,14.75
2022-11-15T18:53:47.702Z,13.78
2022-11-15T18:56:17.855Z,13.55
2022-11-15T18:58:54.562Z,13.72
2022-11-15T19:01:23.468Z,13.71
2022-11-15T19:03:52.135Z,14.64
2022-11-15T19:06:23.711Z,14.23
2022-11-15T19:08:53.471Z,14.92
2022-11-15T19:11:24.349Z,14.72
2022-11-15T19:13:56.510Z,14.76
2022-11-15T19:16:25.294Z,14.51
2022-11-15T19:18:56.409Z,14.25
2022-11-15T19:21:24.619Z,14.85
2022-11-15T19:23:54.306Z,15.22
2022-11-15T19:26:23.855Z,14.71
2022-11-15T19:28:58.152Z,14.19
2022-11-15T19:31:26.366Z,14.51
2022-11-15T19:33:53.924Z,14.67
2022-11-15T19:36:23.079Z,13.99
2022-11-15T19:38:50.681Z,13.73
2022-11-15T19:41:19.108Z,14.31
2022-11-15T19:43:50.983Z,13.79
2022-11-15T19:46:20.497Z,14.18
2022-11-15T19:48:48.153Z,14.70
2022-11-15T19:51:22.678Z,13.53
2022-11-15T19:53:52.367Z,13.65
2022-11-15T19:56:19.772Z,13.20
2022-11-15T19:58:48.312Z,13.27
2022-11-15T20:01:19.097Z,13.33
2022-11-15T20:03:47.515Z,13.00
2022-11-15T20:06:18.573Z,14.02
2022-11-15T20:08:46.480Z,14.48
2022-11-15T20:11:14.745Z,12.96
2022-11-15T20:13:42.552Z,13.76
2022-11-15T20:16:10.810Z,14.39
2022-11-15T20:18:38.234Z,15.03
2022-11-15T20:21:07.164Z,13.96
2022-11-15T20:23:34.417Z,14.45
2022-11-15T20:26:02.218Z,14.69
2022-11-15T20:28:29.476Z,14.97
2022-11-15T20:30:57.668Z,13.99
2022-11-15T20:33:25.821Z,14.31
2022-11-15T20:35:53.333Z,13.91
2022-11-15T20:38:22.057Z,14.42
2022-11-15T20:40:50.140Z,14.73
2022-11-15T20:43:19.309Z,14.17
2022-11-15T20:45:47.153Z,14.00
2022-11-15T20:48:14.843Z,14.23
2022-11-15T20:50:43.591Z,14.40
2022-11-15T20:53:12.186Z,13.27
2022-11-15T20:55:43.130Z,13.32
2022-11-15T20:58:10.990Z,13.85
2022-11-15T21:00:38.180Z,13.27
2022-11-15T21:03:08.331Z,14.44
2022-11-15T21:05:37.841Z,13.85
2022-11-15T21:08:05.614Z,14.55
2022-11-15T21:10:52.155Z,14.36
2022-11-15T21:13:19.280Z,13.00
2022-11-15T21:15:47.104Z,13.37
2022-11-15T21:18:14.413Z,14.66
2022-11-15T21:20:41.673Z,14.65
2022-11-15T21:23:09.290Z,14.17
2022-11-15T21:25:36.595Z,14.16
2022-11-15T21:28:03.806Z,13.63
2022-11-15T21:30:31.229Z,14.30
2022-11-15T21:32:58.343Z,14.28
2022-11-15T21:35:25.464Z,15.00
2022-11-15T21:37:56.756Z,14.29
2022-11-15T21:40:24.616Z,14.87
2022-11-15T21:42:51.730Z,14.68
2022-11-15T21:45:19.128Z,14.61
2022-11-15T21:47:46.861Z,14.71
2022-11-15T21:50:14.214Z,14.32
2022-11-15T21:52:41.717Z,13.97
2022-11-15T21:55:09.012Z,13.90
2022-11-15T21:57:36.121Z,15.03
2022-11-15T22:00:22.927Z,15.26
2022-11-15T22:02:50.309Z,15.15
2022-11-15T22:05:17.426Z,15.11
2022-11-15T22:07:44.529Z,15.01
2022-11-15T22:10:11.897Z,14.91
2022-11-15T22:12:39.204Z,15.32
2022-11-15T22:15:06.514Z,14.59
2022-11-15T22:17:52.537Z,14.28
2022-11-15T22:23:07.022Z,13.76
2022-11-15T22:25:34.188Z,14.29
2022-11-15T22:28:01.294Z,14.12
2022-11-15T22:30:28.737Z,14.03
2022-11-15T22:32:55.835Z,13.87
2022-11-15T22:35:22.929Z,14.07
2022-11-15T22:37:53.143Z,13.85
2022-11-15T22:40:20.236Z,14.57
2022-11-15T22:42:47.354Z,14.38
2022-11-15T22:45:14.721Z,14.07
2022-11-15T22:47:45.771Z,13.81
2022-11-15T22:50:15.230Z,14.26
2022-11-15T22:52:42.592Z,13.93
2022-11-15T22:55:09.886Z,14.08
2022-11-15T22:57:38.279Z,14.10
2022-11-15T23:00:09.575Z,13.72
2022-11-15T23:02:36.852Z,14.20
2022-11-15T23:05:04.405Z,13.97
2022-11-15T23:07:32.163Z,14.35
2022-11-15T23:10:19.256Z,14.59
2022-11-15T23:13:12.738Z,15.30
2022-11-15T23:15:58.688Z,14.22
2022-11-15T23:18:26.077Z,14.31
2022-11-15T23:20:53.178Z,13.67
2022-11-15T23:23:20.401Z,14.23
2022-11-15T23:25:47.765Z,14.27
2022-11-15T23:28:17.479Z,14.85
2022-11-15T23:31:08.796Z,15.15
2022-11-15T23:33:54.724Z,15.10
2022-11-15T23:36:22.132Z,13.86
2022-11-15T23:38:49.246Z,14.00
2022-11-15T23:41:16.337Z,14.26
2022-11-15T23:43:43.706Z,14.19
2022-11-15T23:46:10.827Z,14.04
2022-11-15T23:48:37.961Z,14.21
2022-11-15T23:51:05.564Z,14.35
2022-11-15T23:53:32.690Z,14.78
2022-11-15T23:56:18.483Z,13.27
2022-11-15T23:58:46.326Z,14.89
